createdAt,value
2024-04-16T00:02:53.189Z,4.95
2024-04-16T00:08:01.092Z,4.90
2024-04-16T00:13:06.690Z,4.94
2024-04-16T00:18:11.933Z,5.06
2024-04-16T00:23:19.399Z,5.10
2024-04-16T00:28:24.620Z,5.20
2024-04-16T00:33:30.100Z,5.32
2024-04-16T00:38:37.636Z,5.41
2024-04-16T00:43:42.896Z,5.41
2024-04-16T00:48:48.247Z,5.44
2024-04-16T00:53:55.720Z,5.47
2024-04-16T00:59:00.883Z,5.37
2024-04-16T01:04:05.923Z,5.24
2024-04-16T01:09:17.401Z,5.09
2024-04-16T01:14:22.471Z,5.02
2024-04-16T01:19:27.675Z,4.97
2024-04-16T01:24:35.524Z,4.86
2024-04-16T01:29:40.780Z,4.86
2024-04-16T01:34:45.836Z,4.79
2024-04-16T01:39:53.367Z,4.77
2024-04-16T01:45:00.942Z,4.63
2024-04-16T01:50:06.564Z,4.76
2024-04-16T01:55:14.292Z,4.92
2024-04-16T02:00:19.651Z,4.97
2024-04-16T02:05:24.506Z,5.01
2024-04-16T02:10:32.256Z,5.07
2024-04-16T02:15:37.203Z,5.03
2024-04-16T02:20:42.622Z,5.01
2024-04-16T02:25:53.461Z,5.02
2024-04-16T02:30:58.423Z,4.95
2024-04-16T02:36:04.450Z,4.88
2024-04-16T02:41:12.117Z,4.81
2024-04-16T02:46:17.029Z,4.78
2024-04-16T02:51:22.360Z,4.72
2024-04-16T02:56:29.853Z,4.65
2024-04-16T03:01:35.655Z,4.66
2024-04-16T03:06:40.780Z,4.64
2024-04-16T03:11:49.428Z,4.46
2024-04-16T03:16:54.513Z,4.40
2024-04-16T03:21:59.614Z,4.32
2024-04-16T03:27:07.926Z,4.19
2024-04-16T03:32:13.150Z,4.10
2024-04-16T03:37:18.188Z,4.05
2024-04-16T03:42:26.177Z,4.05
2024-04-16T03:47:32.691Z,3.92
2024-04-16T03:52:37.851Z,3.92
2024-04-16T03:57:45.526Z,3.86
2024-04-16T04:02:50.447Z,3.83
2024-04-16T04:07:55.704Z,3.78
2024-04-16T04:13:03.425Z,3.61
2024-04-16T04:18:09.133Z,3.60
2024-04-16T04:23:14.279Z,3.52
2024-04-16T04:28:21.749Z,3.35
2024-04-16T04:33:28.641Z,3.32
2024-04-16T04:38:33.586Z,3.33
2024-04-16T04:43:41.101Z,3.42
2024-04-16T04:48:46.454Z,3.49
2024-04-16T04:53:55.196Z,3.41
2024-04-16T04:59:03.011Z,3.43
2024-04-16T05:04:07.981Z,3.47
2024-04-16T05:09:13.083Z,3.72
2024-04-16T05:14:20.883Z,4.01
2024-04-16T05:19:25.969Z,4.15
2024-04-16T05:24:30.884Z,4.29
2024-04-16T05:29:38.349Z,4.33
2024-04-16T05:34:43.373Z,4.51
2024-04-16T05:39:48.391Z,4.54
2024-04-16T05:44:55.861Z,4.44
2024-04-16T05:50:02.257Z,4.62
2024-04-16T05:55:09.583Z,4.77
2024-04-16T06:00:17.608Z,4.70
2024-04-16T06:05:22.649Z,4.68
2024-04-16T06:10:27.588Z,4.85
2024-04-16T06:15:35.428Z,5.12
2024-04-16T06:20:40.330Z,5.35
2024-04-16T06:25:45.310Z,5.44
2024-04-16T06:30:52.783Z,5.35
2024-04-16T06:35:57.742Z,5.34
2024-04-16T06:41:03.568Z,5.38
2024-04-16T06:46:11.147Z,5.60
2024-04-16T06:51:16.121Z,5.63
2024-04-16T06:56:21.046Z,5.62
2024-04-16T07:01:28.728Z,5.63
2024-04-16T07:06:33.655Z,5.94
2024-04-16T07:11:38.557Z,6.27
2024-04-16T07:16:46.385Z,6.49
2024-04-16T07:21:51.524Z,6.50
2024-04-16T07:26:56.677Z,6.56
2024-04-16T07:32:04.228Z,6.75
2024-04-16T07:37:09.827Z,6.81
2024-04-16T07:42:14.969Z,6.92
2024-04-16T07:47:22.832Z,6.86
2024-04-16T07:52:28.134Z,6.89
2024-04-16T07:57:33.354Z,6.79
2024-04-16T08:02:41.087Z,6.71
2024-04-16T08:07:46.980Z,6.72
2024-04-16T08:12:51.917Z,6.74
2024-04-16T08:17:59.435Z,6.77
2024-04-16T08:23:04.379Z,6.95
2024-04-16T08:28:09.633Z,7.12
2024-04-16T08:33:21.391Z,7.19
2024-04-16T08:38:28.166Z,7.23
2024-04-16T08:43:34.750Z,7.14
2024-04-16T08:48:43.465Z,6.93
2024-04-16T08:53:51.241Z,6.72
2024-04-16T08:58:56.472Z,6.28
2024-04-16T09:04:04.471Z,5.92
2024-04-16T09:09:11.017Z,5.81
2024-04-16T09:14:17.765Z,5.76
2024-04-16T09:19:28.787Z,5.85
2024-04-16T09:24:33.843Z,5.91
2024-04-16T09:29:39.018Z,5.98
2024-04-16T09:34:47.937Z,5.96
2024-04-16T09:39:56.797Z,6.08
2024-04-16T09:45:02.364Z,6.08
2024-04-16T09:50:21.506Z,6.45
2024-04-16T09:55:38.483Z,6.51
2024-04-16T10:00:44.165Z,6.51
2024-04-16T10:05:51.727Z,6.61
2024-04-16T10:11:08.396Z,6.59
2024-04-16T10:16:19.746Z,6.75
2024-04-16T10:21:30.883Z,6.92
2024-04-16T10:26:38.011Z,6.97
2024-04-16T10:31:46.241Z,7.03
2024-04-16T10:36:55.349Z,7.24
2024-04-16T10:42:02.434Z,7.50
2024-04-16T10:47:11.273Z,7.86
2024-04-16T10:52:19.006Z,8.02
2024-04-16T10:57:24.242Z,8.63
2024-04-16T11:02:29.357Z,9.32
2024-04-16T11:07:37.430Z,9.91
2024-04-16T11:12:42.840Z,10.32
2024-04-16T11:17:48.772Z,10.58
2024-04-16T11:22:56.985Z,10.15
2024-04-16T11:28:01.907Z,9.99
2024-04-16T11:33:16.279Z,9.59
2024-04-16T11:38:27.709Z,9.84
2024-04-16T11:43:33.002Z,10.14
2024-04-16T11:48:39.385Z,10.26
2024-04-16T11:53:46.842Z,10.33
2024-04-16T11:58:51.788Z,11.14
2024-04-16T12:03:56.816Z,10.46
2024-04-16T12:09:04.486Z,10.50
2024-04-16T12:14:11.830Z,10.97
2024-04-16T12:19:16.905Z,11.26
2024-04-16T12:24:24.444Z,10.77
2024-04-16T12:29:29.309Z,10.25
2024-04-16T12:34:34.291Z,9.84
2024-04-16T12:39:41.951Z,9.65
2024-04-16T12:44:46.840Z,9.54
2024-04-16T12:49:51.669Z,9.44
2024-04-16T12:54:59.203Z,9.45
2024-04-16T13:00:04.243Z,9.22
2024-04-16T13:05:09.336Z,8.90
2024-04-16T13:10:16.974Z,8.73
2024-04-16T13:15:21.914Z,8.73
2024-04-16T13:20:29.102Z,8.47
2024-04-16T13:25:36.618Z,8.19
2024-04-16T13:30:41.556Z,7.53
2024-04-16T13:35:46.625Z,7.14
2024-04-16T13:40:54.701Z,6.88
2024-04-16T13:45:59.820Z,6.63
2024-04-16T13:51:07.080Z,6.65
2024-04-16T13:56:15.364Z,6.72
2024-04-16T14:01:20.712Z,6.67
2024-04-16T14:06:26.177Z,6.64
2024-04-16T14:11:33.852Z,6.99
2024-04-16T14:16:38.960Z,7.98
2024-04-16T14:21:44.190Z,9.17
2024-04-16T14:26:51.625Z,9.90
2024-04-16T14:31:56.594Z,10.06
2024-04-16T14:37:03.037Z,10.15
2024-04-16T14:42:10.721Z,10.55
2024-04-16T14:47:15.880Z,10.43
2024-04-16T14:52:20.818Z,10.90
2024-04-16T14:57:28.612Z,10.36
2024-04-16T15:02:33.545Z,10.02
2024-04-16T15:07:38.546Z,9.62
2024-04-16T15:12:46.099Z,9.04
2024-04-16T15:17:51.294Z,8.63
2024-04-16T15:22:56.216Z,7.79
2024-04-16T15:28:03.911Z,7.64
2024-04-16T15:33:09.219Z,7.71
2024-04-16T15:38:14.113Z,8.04
2024-04-16T15:43:22.555Z,8.23
2024-04-16T15:48:27.852Z,8.19
2024-04-16T15:53:32.760Z,8.12
2024-04-16T15:58:40.296Z,8.08
2024-04-16T16:03:45.248Z,8.09
2024-04-16T16:08:50.270Z,8.04
2024-04-16T16:13:57.761Z,8.09
2024-04-16T16:19:02.993Z,8.13
2024-04-16T16:24:08.624Z,8.07
2024-04-16T16:29:16.101Z,8.04
2024-04-16T16:34:21.013Z,8.00
2024-04-16T16:39:26.054Z,8.07
2024-04-16T16:44:33.530Z,7.99
2024-04-16T16:49:38.539Z,7.92
2024-04-16T16:54:43.636Z,7.99
2024-04-16T16:59:51.081Z,7.76
2024-04-16T17:04:55.984Z,7.76
2024-04-16T17:10:00.897Z,7.76
2024-04-16T17:15:09.370Z,7.69
2024-04-16T17:20:14.336Z,7.66
2024-04-16T17:25:19.351Z,7.60
2024-04-16T17:30:27.486Z,7.32
2024-04-16T17:35:32.736Z,7.14
2024-04-16T17:40:37.622Z,6.99
2024-04-16T17:45:46.843Z,6.81
2024-04-16T17:51:01.203Z,6.67
2024-04-16T17:56:12.970Z,6.50
2024-04-16T18:01:20.611Z,6.31
2024-04-16T18:06:26.276Z,6.13
2024-04-16T18:11:32.135Z,5.97
2024-04-16T18:16:39.805Z,5.81
2024-04-16T18:21:44.754Z,5.72
2024-04-16T18:26:49.779Z,5.59
2024-04-16T18:31:57.337Z,5.48
2024-04-16T18:37:04.966Z,5.31
2024-04-16T18:42:11.274Z,5.20
2024-04-16T18:47:21.762Z,5.17
2024-04-16T18:52:28.378Z,5.03
2024-04-16T18:57:33.284Z,4.99
2024-04-16T19:02:42.073Z,4.99
2024-04-16T19:07:47.168Z,4.92
2024-04-16T19:12:52.172Z,4.97
2024-04-16T19:17:59.813Z,5.00
2024-04-16T19:23:04.778Z,4.99
2024-04-16T19:28:09.704Z,5.12
2024-04-16T19:33:17.364Z,5.13
2024-04-16T19:38:22.940Z,5.12
2024-04-16T19:43:28.375Z,5.09
2024-04-16T19:48:35.925Z,5.04
2024-04-16T19:53:41.252Z,5.00
2024-04-16T19:58:46.373Z,4.93
2024-04-16T20:03:54.039Z,4.92
2024-04-16T20:08:59.062Z,4.88
2024-04-16T20:14:04.077Z,4.87
2024-04-16T20:19:12.244Z,4.87
2024-04-16T20:24:17.382Z,4.88
2024-04-16T20:29:22.234Z,4.84
2024-04-16T20:34:36.664Z,4.75
2024-04-16T20:39:49.894Z,4.76
2024-04-16T20:44:54.786Z,4.71
2024-04-16T20:50:02.228Z,4.67
2024-04-16T20:55:07.660Z,4.62
2024-04-16T21:00:13.541Z,4.67
2024-04-16T21:05:21.050Z,4.67
2024-04-16T21:10:26.033Z,4.66
2024-04-16T21:15:30.935Z,4.68
2024-04-16T21:20:38.630Z,4.71
2024-04-16T21:25:45.567Z,4.74
2024-04-16T21:30:50.585Z,4.77
2024-04-16T21:35:58.064Z,4.73
2024-04-16T21:41:02.925Z,4.74
2024-04-16T21:46:08.399Z,4.80
2024-04-16T21:51:15.842Z,4.84
2024-04-16T21:56:21.072Z,4.80
2024-04-16T22:01:26.218Z,4.86
2024-04-16T22:06:34.457Z,4.94
2024-04-16T22:11:39.397Z,4.94
2024-04-16T22:16:44.500Z,4.98
2024-04-16T22:21:52.125Z,5.06
2024-04-16T22:26:57.035Z,5.13
2024-04-16T22:32:02.103Z,5.15
2024-04-16T22:37:09.748Z,5.24
2024-04-16T22:42:14.600Z,5.26
2024-04-16T22:47:19.683Z,5.23
2024-04-16T22:52:27.549Z,5.28
2024-04-16T22:57:32.731Z,5.32
2024-04-16T23:02:37.898Z,5.34
2024-04-16T23:07:45.694Z,5.37
2024-04-16T23:12:50.899Z,5.43
2024-04-16T23:17:56.069Z,5.46
2024-04-16T23:23:04.032Z,5.52
2024-04-16T23:28:09.103Z,5.56
2024-04-16T23:33:14.120Z,5.60
2024-04-16T23:38:22.188Z,5.63
2024-04-16T23:43:27.298Z,5.70
2024-04-16T23:48:32.578Z,5.70
2024-04-16T23:53:40.465Z,5.77
2024-04-16T23:58:45.403Z,5.77
